YXTW weather

Tamworth Hospital Helipad
Tamworth, New South Wales, Australia

Public forecast

Using degrees Celsius for public forecast. Weather courtesy of forecast.io.

METAR (pilot weather report)

Closest report is Tamworth Airport, 4.1 nm (7.6 km) W. Retrieved 2019/04/24 00:30 UTC (0 seconds ago):

YSTW 240030Z AUTO 01001KT 9999 // NCD 24/09 Q1024 RF00.0/000.0

TAF (pilot weather forecast)

Forecast is more than 12 hours old.

Closest forecast is Tamworth Airport, 4.1 nm (7.6 km) W. Retrieved 2019/04/23 00:36 UTC (24 hours ago):

TAF YSTW 232304Z 2400/2418 15006KT CAVOK FM241100 10006KT CAVOK